Weather History for New Ulm, MN

Change the Weather History Date:

Monday, April 8, 2013

  Actual Average Record
Temperature  
Mean Temperature 46 °F -  
Max Temperature 50 °F 53 °F 83 °F (1988)
Min Temperature 41 °F 32 °F 10 °F (1997)
Degree Days  
Heating Degree Days 20    
Moisture  
Dew Point 43 °F    
Average Humidity 90    
Maximum Humidity 93    
Minimum Humidity 81    
Precipitation  
Precipitation 0.23 in - - ()
Sea Level Pressure  
Sea Level Pressure 29.79 in    
Wind  
Wind Speed 7 mph (NE)    
Max Wind Speed 18 mph    
Max Gust Speed 23 mph    
Visibility 5 miles    
Events Fog , Rain    
Averages and records for this station are not official NWS values.
T = Trace of Precipitation, MM = Missing Value Source: NWS Daily Summary

Daily Weather History Graph

Daily Weather History Graph

Search for Another Location

Airport:

Trip Planner

Search our weather history database for the weather conditions in past years. The results will help you decide how hot, cold, wet, or windy it might be!

Date:

Astronomy

Apr. 08, 2013 Rise Set
Actual Time 6:46 AM CDT 7:54 PM CDT
Civil Twilight 6:16 AM CDT 8:24 PM CDT
Nautical Twilight 5:40 AM CDT 8:59 PM CDT
Astronomical Twilight 5:03 AM CDT 9:37 PM CDT
Moon 5:39 AM CDT (4/8) 6:27 PM CDT (4/8)
Length of Visible Light 14h 07m
Length of Day
13h 08m
Waning Crescent, 3% of the Moon is Illuminated
Apr 8
Waning Crescent
Apr 10
New
Apr 18
First Quarter
Apr 25
Full
May 2
Last Quarter

Hourly Weather History & Observations

Time (CDT) Temp. Windchill Dew Point Humidity Pressure Visibility Wind Dir Wind Speed Gust Speed Precip Events Conditions
12:12 AM 46.4 °F 44.3 °F 44.6 °F 93% 29.71 in 2.0 mi NNE 4.6 mph - 0.01 in Rain Light Rain
12:33 AM 46.4 °F 43.5 °F 44.6 °F 93% 29.70 in 2.5 mi ENE 5.8 mph - 0.01 in   Mostly Cloudy
12:53 AM 46.4 °F 44.3 °F 44.6 °F 93% 29.69 in 2.5 mi North 4.6 mph - 0.03 in Rain Rain
1:12 AM 46.4 °F 42.9 °F 44.6 °F 93% 29.69 in 2.5 mi NNE 6.9 mph - 0.03 in Rain Light Rain
1:33 AM 46.4 °F 42.9 °F 44.6 °F 93% 29.69 in 3.0 mi East 6.9 mph - 0.03 in   Light Drizzle
1:53 AM 46.4 °F 42.9 °F 44.6 °F 93% 29.68 in 3.0 mi ENE 6.9 mph - 0.03 in   Overcast
2:12 AM 46.4 °F 44.3 °F 44.6 °F 93% 29.69 in 4.0 mi ENE 4.6 mph - 0.01 in Rain Light Rain
2:33 AM 46.4 °F 42.9 °F 44.6 °F 93% 29.69 in 3.0 mi East 6.9 mph - 0.01 in Rain Light Rain
2:53 AM 44.6 °F 38.8 °F 42.8 °F 93% 29.68 in 3.0 mi East 11.5 mph - 0.10 in Rain Light Rain
3:12 AM 44.6 °F 39.7 °F 42.8 °F 93% 29.67 in 2.5 mi East 9.2 mph - 0.03 in Rain Rain
3:33 AM 46.4 °F 43.5 °F 44.6 °F 93% 29.66 in 4.0 mi East 5.8 mph - 0.05 in Rain Light Rain
3:53 AM 46.4 °F 44.3 °F 44.6 °F 93% 29.66 in 4.0 mi ESE 4.6 mph - 0.05 in   Light Drizzle
4:12 AM 46.4 °F 45.2 °F 44.6 °F 93% 29.65 in 2.5 mi NE 3.5 mph - N/A   Overcast
4:33 AM 46.4 °F 44.3 °F 44.6 °F 93% 29.65 in 3.0 mi NE 4.6 mph - N/A   Mostly Cloudy
4:52 AM 44.6 °F 43.1 °F 42.8 °F 93% 29.65 in 2.0 mi NE 3.5 mph - N/A   Mostly Cloudy
5:13 AM 44.6 °F 43.1 °F 42.8 °F 93% 29.64 in 2.5 mi NNE 3.5 mph - N/A   Clear
5:52 AM 42.8 °F 38.0 °F 41.0 °F 93% 29.64 in 1.5 mi NE 8.1 mph - N/A   Mostly Cloudy
6:13 AM 42.8 °F 38.6 °F 41.0 °F 93% 29.65 in 0.2 mi NE 6.9 mph - N/A Fog Fog
6:32 AM 42.8 °F 38.0 °F 39.2 °F 87% 29.67 in 0.2 mi NE 8.1 mph - 0.01 in Fog Fog
6:53 AM 41.0 °F 36.4 °F 39.2 °F 93% 29.67 in 0.2 mi NE 6.9 mph - 0.01 in   Overcast
7:13 AM 41.0 °F 37.1 °F 39.2 °F 93% 29.69 in 0.2 mi NE 5.8 mph - N/A   Overcast
7:32 AM 41.0 °F 37.1 °F 39.2 °F 93% 29.69 in 0.2 mi NE 5.8 mph - N/A   Overcast
7:53 AM 42.8 °F 41.1 °F 39.2 °F 87% 29.71 in 0.2 mi NNE 3.5 mph - N/A   Overcast
8:13 AM 42.8 °F 41.1 °F 41.0 °F 93% 29.71 in 1.2 mi NE 3.5 mph - N/A   Overcast
8:32 AM 42.8 °F - 41.0 °F 93% 29.71 in 1.2 mi Calm Calm - N/A   Mostly Cloudy
8:53 AM 42.8 °F 38.6 °F 41.0 °F 93% 29.71 in 1.5 mi NE 6.9 mph - N/A   Mostly Cloudy
9:13 AM 44.6 °F 40.7 °F 42.8 °F 93% 29.71 in 1.8 mi NE 6.9 mph - N/A   Mist
9:33 AM 44.6 °F 41.4 °F 42.8 °F 93% 29.72 in 2.5 mi NNE 5.8 mph - N/A   Mist
9:53 AM 44.6 °F 40.2 °F 42.8 °F 93% 29.72 in 2.5 mi NNE 8.1 mph - N/A   Mist
10:13 AM 46.4 °F 42.9 °F 44.6 °F 93% 29.73 in 2.5 mi NNE 6.9 mph - N/A   Mist
10:32 AM 46.4 °F 42.4 °F 44.6 °F 93% 29.73 in 2.5 mi NE 8.1 mph - N/A   Mist
10:53 AM 46.4 °F 42.4 °F 44.6 °F 93% 29.74 in 2.5 mi NNE 8.1 mph - N/A   Mist
11:13 AM 46.4 °F 42.9 °F 44.6 °F 93% 29.75 in 2.0 mi NNE 6.9 mph - N/A   Mist
11:33 AM 46.4 °F 43.5 °F 44.6 °F 93% 29.75 in 2.0 mi ENE 5.8 mph - N/A   Mist
11:53 AM 46.4 °F - 44.6 °F 93% 29.77 in 2.5 mi Calm Calm - N/A   Mist
12:12 PM 48.2 °F - 44.6 °F 87% 29.77 in 4.0 mi NNE 3.5 mph - N/A   Clear
12:33 PM 50.0 °F - 46.4 °F 87% 29.77 in 4.0 mi North 3.5 mph - N/A   Clear
12:53 PM 48.2 °F - 46.4 °F 93% 29.77 in 5.0 mi NNE 5.8 mph - N/A   Clear
1:12 PM 48.2 °F - 46.4 °F 93% 29.78 in 3.0 mi NNE 4.6 mph - N/A Rain Rain
1:33 PM 48.2 °F - 46.4 °F 93% 29.78 in 4.0 mi NNE 8.1 mph - N/A Rain Light Rain
1:53 PM 50.0 °F - 46.4 °F 87% 29.77 in 5.0 mi NNE 9.2 mph - 0.01 in Rain Light Rain
2:12 PM 50.0 °F - 46.4 °F 87% 29.79 in 4.0 mi NNE 9.2 mph - N/A   Clear
2:33 PM 48.2 °F - 46.4 °F 93% 29.79 in 4.0 mi NE 10.4 mph - N/A   Clear
2:53 PM 48.2 °F - 46.4 °F 93% 29.79 in 5.0 mi NNE 8.1 mph - N/A   Clear
3:12 PM 48.2 °F - 46.4 °F 93% 29.79 in 5.0 mi NNE 9.2 mph - N/A   Clear
3:33 PM 48.2 °F - 44.6 °F 87% 29.81 in 7.0 mi NNE 8.1 mph - N/A   Clear
3:53 PM 48.2 °F - 44.6 °F 87% 29.81 in 7.0 mi NE 8.1 mph - N/A   Clear
4:12 PM 48.2 °F - 44.6 °F 87% 29.82 in 7.0 mi NNE 8.1 mph - N/A   Clear
4:33 PM 48.2 °F - 44.6 °F 87% 29.82 in 7.0 mi NNE 9.2 mph - N/A   Clear
4:53 PM 46.4 °F 41.5 °F 44.6 °F 93% 29.83 in 7.0 mi NNE 10.4 mph - N/A   Clear
5:13 PM 46.4 °F 41.9 °F 44.6 °F 93% 29.84 in 5.0 mi NNE 9.2 mph - N/A   Scattered Clouds
5:33 PM 46.4 °F 41.5 °F 44.6 °F 93% 29.86 in 7.0 mi NNE 10.4 mph - N/A   Scattered Clouds
5:53 PM 46.4 °F 41.9 °F 42.8 °F 87% 29.88 in 7.0 mi NNE 9.2 mph - N/A   Scattered Clouds
6:13 PM 46.4 °F 41.9 °F 42.8 °F 87% 29.89 in 7.0 mi NNE 9.2 mph - N/A   Scattered Clouds
6:33 PM 46.4 °F 41.9 °F 42.8 °F 87% 29.90 in 10.0 mi NNE 9.2 mph - N/A   Mostly Cloudy
6:53 PM 46.4 °F 41.5 °F 42.8 °F 87% 29.91 in 10.0 mi NNE 10.4 mph - N/A   Overcast
7:13 PM 46.4 °F 40.7 °F 42.8 °F 87% 29.92 in 10.0 mi NNE 12.7 mph 16.1 mph N/A   Overcast
7:33 PM 44.6 °F 38.4 °F 41.0 °F 87% 29.92 in 10.0 mi NNE 12.7 mph 17.3 mph N/A   Overcast
7:52 PM 44.6 °F 38.1 °F 41.0 °F 87% 29.92 in 10.0 mi NNE 13.8 mph 18.4 mph N/A   Overcast
8:13 PM 44.6 °F 38.8 °F 41.0 °F 87% 29.93 in 10.0 mi NNE 11.5 mph 18.4 mph N/A   Overcast
8:33 PM 44.6 °F 38.1 °F 39.2 °F 81% 29.95 in 10.0 mi NNE 13.8 mph 20.7 mph N/A   Overcast
8:52 PM 42.8 °F 35.4 °F 39.2 °F 87% 29.95 in 10.0 mi NNE 15.0 mph 18.4 mph N/A   Overcast
9:13 PM 42.8 °F 35.8 °F 39.2 °F 87% 29.95 in 10.0 mi NE 13.8 mph 20.7 mph N/A   Overcast
9:33 PM 42.8 °F 35.1 °F 39.2 °F 87% 29.96 in 10.0 mi NE 16.1 mph 21.9 mph N/A   Overcast
9:52 PM 42.8 °F 34.5 °F 39.2 °F 87% 29.95 in 10.0 mi NNE 18.4 mph 23.0 mph N/A   Overcast
10:13 PM 42.8 °F 35.4 °F 39.2 °F 87% 29.98 in 10.0 mi NE 15.0 mph - N/A   Overcast
10:33 PM 42.8 °F 35.1 °F 39.2 °F 87% 29.98 in 10.0 mi NE 16.1 mph 21.9 mph N/A   Overcast
10:52 PM 42.8 °F 34.8 °F 37.4 °F 81% 29.99 in 10.0 mi NE 17.3 mph 20.7 mph N/A   Overcast
11:13 PM 42.8 °F 35.8 °F 37.4 °F 81% 30.00 in 10.0 mi NE 13.8 mph 23.0 mph N/A   Overcast
11:33 PM 42.8 °F 35.8 °F 37.4 °F 81% 30.00 in 10.0 mi NE 13.8 mph - N/A   Overcast
11:52 PM 41.0 °F 33.5 °F 37.4 °F 87% 30.00 in 10.0 mi NE 13.8 mph 18.4 mph N/A   Overcast